createdAt,value
2023-05-14T00:00:30.222Z,8.15
2023-05-14T00:01:30.232Z,8.12
2023-05-14T00:02:30.282Z,8.11
2023-05-14T00:03:30.334Z,8.04
2023-05-14T00:04:30.211Z,8.02
2023-05-14T00:05:30.188Z,8.00
2023-05-14T00:06:30.155Z,7.96
2023-05-14T00:07:30.147Z,7.94
2023-05-14T00:08:30.144Z,7.92
2023-05-14T00:09:30.142Z,7.89
2023-05-14T00:10:30.181Z,7.89
2023-05-14T00:11:30.155Z,7.90
2023-05-14T00:12:30.127Z,7.87
2023-05-14T00:13:30.087Z,7.89
2023-05-14T00:14:30.079Z,7.87
2023-05-14T00:15:31.762Z,7.87
2023-05-14T00:16:30.218Z,7.81
2023-05-14T00:17:30.088Z,7.82
2023-05-14T00:18:30.079Z,7.78
2023-05-14T00:19:30.047Z,7.75
2023-05-14T00:20:30.057Z,7.78
2023-05-14T00:21:30.036Z,7.75
2023-05-14T00:22:29.996Z,7.77
2023-05-14T00:23:29.991Z,7.75
2023-05-14T00:24:30.009Z,7.71
2023-05-14T00:25:29.998Z,7.72
2023-05-14T00:26:29.966Z,7.75
2023-05-14T00:27:29.957Z,7.79
2023-05-14T00:28:29.930Z,7.78
2023-05-14T00:29:29.960Z,7.78
2023-05-14T00:30:29.970Z,7.79
2023-05-14T00:31:30.007Z,7.78
2023-05-14T00:32:29.934Z,7.82
2023-05-14T00:33:29.892Z,7.92
2023-05-14T00:34:29.935Z,7.94
2023-05-14T00:35:29.866Z,7.93
2023-05-14T00:36:29.883Z,7.93
2023-05-14T00:37:29.884Z,7.96
2023-05-14T00:38:29.832Z,7.97
2023-05-14T00:39:29.875Z,7.97
2023-05-14T00:40:29.823Z,7.94
2023-05-14T00:41:29.821Z,7.93
2023-05-14T00:42:29.798Z,7.89
2023-05-14T00:43:29.807Z,7.87
2023-05-14T00:44:29.833Z,7.82
2023-05-14T00:45:29.780Z,7.79
2023-05-14T00:46:29.815Z,7.77
2023-05-14T00:47:29.782Z,7.77
2023-05-14T00:48:29.769Z,7.77
2023-05-14T00:49:29.735Z,7.79
2023-05-14T00:50:29.728Z,7.75
2023-05-14T00:51:29.700Z,7.72
2023-05-14T00:52:29.709Z,7.71
2023-05-14T00:53:29.721Z,7.66
2023-05-14T00:54:29.691Z,7.66
2023-05-14T00:55:29.668Z,7.63
2023-05-14T00:56:29.651Z,7.66
2023-05-14T00:57:29.662Z,7.72
2023-05-14T00:58:29.724Z,7.72
2023-05-14T00:59:29.631Z,7.71
2023-05-14T01:00:29.618Z,7.72
2023-05-14T01:01:29.768Z,7.72
2023-05-14T01:02:29.728Z,7.71
2023-05-14T01:03:29.698Z,7.66
2023-05-14T01:04:29.581Z,7.63
2023-05-14T01:05:29.574Z,7.63
2023-05-14T01:06:29.550Z,7.62
2023-05-14T01:07:29.570Z,7.60
2023-05-14T01:08:29.533Z,7.55
2023-05-14T01:09:29.525Z,7.52
2023-05-14T01:10:29.542Z,7.55
2023-05-14T01:11:29.542Z,7.58
2023-05-14T01:12:29.557Z,7.60
2023-05-14T01:13:29.516Z,7.62
2023-05-14T01:14:29.488Z,7.60
2023-05-14T01:15:29.456Z,7.60
2023-05-14T01:16:29.528Z,7.60
2023-05-14T01:17:29.477Z,7.58
2023-05-14T01:18:29.491Z,7.53
2023-05-14T01:19:29.431Z,7.55
2023-05-14T01:20:29.411Z,7.47
2023-05-14T01:21:29.428Z,7.50
2023-05-14T01:22:29.416Z,7.50
2023-05-14T01:23:29.382Z,7.42
2023-05-14T01:24:29.398Z,7.38
2023-05-14T01:25:29.358Z,7.34
2023-05-14T01:26:29.378Z,7.31
2023-05-14T01:27:29.373Z,7.27
2023-05-14T01:28:29.356Z,7.23
2023-05-14T01:29:29.321Z,7.26
2023-05-14T01:30:29.340Z,7.26
2023-05-14T01:31:29.374Z,7.24
2023-05-14T01:32:29.330Z,7.26
2023-05-14T01:33:29.308Z,7.32
2023-05-14T01:34:29.323Z,7.31
2023-05-14T01:35:29.316Z,7.27
2023-05-14T01:36:29.263Z,7.24
2023-05-14T01:37:29.235Z,7.24
2023-05-14T01:38:29.249Z,7.29
2023-05-14T01:39:29.260Z,7.29
2023-05-14T01:40:29.252Z,7.35
2023-05-14T01:41:29.208Z,7.35
2023-05-14T01:42:29.211Z,7.34
2023-05-14T01:43:29.294Z,7.31
2023-05-14T01:44:29.198Z,7.26
2023-05-14T01:45:29.155Z,7.29
2023-05-14T01:46:29.233Z,7.26
2023-05-14T01:47:29.181Z,7.29
2023-05-14T01:48:29.135Z,7.32
2023-05-14T01:49:29.184Z,7.32
2023-05-14T01:50:29.122Z,7.27
2023-05-14T01:51:29.096Z,7.26
2023-05-14T01:52:29.091Z,7.23
2023-05-14T01:53:29.168Z,7.19
2023-05-14T01:54:29.116Z,7.16
2023-05-14T01:55:29.067Z,7.16
2023-05-14T01:56:29.055Z,7.17
2023-05-14T01:57:29.067Z,7.15
2023-05-14T01:58:29.061Z,7.15
2023-05-14T01:59:29.033Z,7.13
2023-05-14T02:00:29.017Z,7.12
2023-05-14T02:01:29.008Z,7.09
2023-05-14T02:02:29.011Z,7.05
2023-05-14T02:03:29.067Z,7.05
2023-05-14T02:04:28.977Z,7.04
2023-05-14T02:05:28.959Z,7.02
2023-05-14T02:06:28.948Z,7.01
2023-05-14T02:07:28.959Z,6.98
2023-05-14T02:08:28.966Z,6.98
2023-05-14T02:09:28.931Z,6.91
2023-05-14T02:10:28.907Z,6.89
2023-05-14T02:11:28.902Z,6.90
2023-05-14T02:12:28.920Z,6.86
2023-05-14T02:13:28.880Z,6.83
2023-05-14T02:14:28.902Z,6.84
2023-05-14T02:15:28.866Z,6.83
2023-05-14T02:16:28.889Z,6.84
2023-05-14T02:17:28.875Z,6.90
2023-05-14T02:18:28.860Z,6.94
2023-05-14T02:19:28.830Z,6.95
2023-05-14T02:20:28.812Z,6.97
2023-05-14T02:21:28.861Z,6.97
2023-05-14T02:22:28.822Z,6.95
2023-05-14T02:23:40.432Z,6.91
2023-05-14T02:24:28.783Z,6.91
2023-05-14T02:25:28.776Z,6.90
2023-05-14T02:26:28.783Z,6.91
2023-05-14T02:27:28.737Z,6.97
2023-05-14T02:28:28.745Z,7.01
2023-05-14T02:29:28.732Z,7.05
2023-05-14T02:30:28.715Z,7.09
2023-05-14T02:31:28.836Z,7.19
2023-05-14T02:32:28.809Z,7.20
2023-05-14T02:33:28.758Z,7.27
2023-05-14T02:34:28.679Z,7.42
2023-05-14T02:35:28.699Z,7.77
2023-05-14T02:36:28.675Z,8.04
2023-05-14T02:37:28.655Z,8.21
2023-05-14T02:38:28.637Z,8.37
2023-05-14T02:39:28.632Z,8.53
2023-05-14T02:40:28.676Z,8.68
2023-05-14T02:41:28.606Z,8.73
2023-05-14T02:42:28.612Z,8.78
2023-05-14T02:43:28.584Z,8.83
2023-05-14T02:44:28.596Z,8.83
2023-05-14T02:45:28.592Z,8.81
2023-05-14T02:46:28.596Z,8.79
2023-05-14T02:47:28.605Z,8.81
2023-05-14T02:48:28.535Z,8.81
2023-05-14T02:49:28.531Z,8.86
2023-05-14T02:50:28.549Z,8.86
2023-05-14T02:51:28.466Z,8.90
2023-05-14T02:52:28.444Z,8.93
2023-05-14T02:53:28.436Z,8.97
2023-05-14T02:54:28.455Z,8.99
2023-05-14T02:55:28.414Z,8.99
2023-05-14T02:56:28.429Z,9.04
2023-05-14T02:57:28.413Z,9.02
2023-05-14T02:58:28.684Z,9.02
2023-05-14T02:59:28.402Z,9.02
2023-05-14T03:00:28.380Z,9.01
2023-05-14T03:01:28.507Z,9.01
2023-05-14T03:02:28.425Z,8.99
2023-05-14T03:03:28.393Z,9.01
2023-05-14T03:04:28.324Z,9.01
2023-05-14T03:05:28.308Z,8.99
2023-05-14T03:06:28.304Z,8.97
2023-05-14T03:07:28.275Z,8.96
2023-05-14T03:08:28.329Z,8.94
2023-05-14T03:09:28.279Z,8.91
2023-05-14T03:10:28.268Z,8.88
2023-05-14T03:11:28.238Z,8.88
2023-05-14T03:12:28.279Z,8.84
2023-05-14T03:13:28.250Z,8.81
2023-05-14T03:14:28.237Z,8.81
2023-05-14T03:15:28.200Z,8.79
2023-05-14T03:16:28.223Z,8.79
2023-05-14T03:17:28.264Z,8.78
2023-05-14T03:18:28.224Z,8.78
2023-05-14T03:19:28.281Z,8.73
2023-05-14T03:20:28.184Z,8.72
2023-05-14T03:21:28.161Z,8.72
2023-05-14T03:22:28.206Z,8.69
2023-05-14T03:23:28.127Z,8.68
2023-05-14T03:24:28.173Z,8.66
2023-05-14T03:25:28.101Z,8.66
2023-05-14T03:26:28.169Z,8.65
2023-05-14T03:27:28.107Z,8.62
2023-05-14T03:28:28.075Z,8.63
2023-05-14T03:29:28.072Z,8.66
2023-05-14T03:30:28.112Z,8.66
2023-05-14T03:31:28.188Z,8.68
2023-05-14T03:32:28.078Z,8.68
2023-05-14T03:33:28.017Z,8.68
2023-05-14T03:34:28.045Z,8.71
2023-05-14T03:35:28.005Z,8.73
2023-05-14T03:36:28.019Z,8.76
2023-05-14T03:37:27.980Z,8.76
2023-05-14T03:38:27.985Z,8.81
2023-05-14T03:39:27.984Z,8.78
2023-05-14T03:40:27.993Z,8.81
2023-05-14T03:41:27.965Z,8.81
2023-05-14T03:42:27.939Z,8.84
2023-05-14T03:43:27.926Z,8.84
2023-05-14T03:44:27.919Z,8.88
2023-05-14T03:45:27.934Z,8.90
2023-05-14T03:46:27.943Z,8.90
2023-05-14T03:47:27.919Z,8.94
2023-05-14T03:48:28.101Z,8.96
2023-05-14T03:49:27.876Z,9.02
2023-05-14T03:50:27.916Z,9.02
2023-05-14T03:51:27.841Z,9.05
2023-05-14T03:52:27.837Z,9.02
2023-05-14T03:53:27.873Z,9.05
2023-05-14T03:54:27.824Z,9.02
2023-05-14T03:55:27.841Z,9.01
2023-05-14T03:56:27.810Z,8.96
2023-05-14T03:57:27.787Z,8.93
2023-05-14T03:58:27.786Z,8.96
2023-05-14T03:59:27.817Z,8.97
2023-05-14T04:00:27.792Z,9.01
2023-05-14T04:01:27.746Z,9.02
2023-05-14T04:02:27.798Z,9.02
2023-05-14T04:03:27.912Z,9.05
2023-05-14T04:04:27.767Z,9.04
2023-05-14T04:05:27.706Z,9.05
2023-05-14T04:06:27.693Z,9.05
2023-05-14T04:07:27.679Z,9.05
2023-05-14T04:08:27.677Z,9.02
2023-05-14T04:09:27.686Z,9.01
2023-05-14T04:10:27.654Z,9.02
2023-05-14T04:11:27.632Z,9.02
2023-05-14T04:12:27.624Z,9.02
2023-05-14T04:13:27.649Z,9.10
2023-05-14T04:14:27.661Z,9.09
2023-05-14T04:15:27.600Z,9.12
2023-05-14T04:16:27.639Z,9.15
2023-05-14T04:17:27.659Z,9.16
2023-05-14T04:18:27.647Z,9.18
2023-05-14T04:19:27.562Z,9.18
2023-05-14T04:20:27.557Z,9.21
2023-05-14T04:21:27.543Z,9.21
2023-05-14T04:22:27.531Z,9.27
2023-05-14T04:23:27.559Z,9.35
2023-05-14T04:24:27.566Z,9.46
2023-05-14T04:25:27.497Z,9.56
2023-05-14T04:26:27.490Z,9.67
2023-05-14T04:27:27.494Z,9.75
2023-05-14T04:28:27.538Z,9.86
2023-05-14T04:29:27.476Z,9.96
2023-05-14T04:30:27.464Z,10.03
2023-05-14T04:31:27.453Z,10.10
2023-05-14T04:32:27.566Z,10.17
2023-05-14T04:33:27.402Z,10.28
2023-05-14T04:34:27.419Z,10.44
2023-05-14T04:35:27.380Z,10.70
2023-05-14T04:36:27.411Z,10.99
2023-05-14T04:37:27.358Z,11.25
2023-05-14T04:38:27.354Z,11.46
2023-05-14T04:39:27.397Z,11.67
2023-05-14T04:40:27.505Z,11.83
2023-05-14T04:41:27.322Z,12.01
2023-05-14T04:42:27.318Z,12.09
2023-05-14T04:43:27.306Z,12.23
2023-05-14T04:44:27.320Z,12.11
2023-05-14T04:45:27.333Z,11.90
2023-05-14T04:46:27.363Z,11.74
2023-05-14T04:47:27.297Z,11.80
2023-05-14T04:48:27.264Z,11.74
2023-05-14T04:49:27.292Z,11.59
2023-05-14T04:50:27.267Z,11.41
2023-05-14T04:51:27.238Z,11.34
2023-05-14T04:52:27.277Z,11.27
2023-05-14T04:53:27.241Z,11.17
2023-05-14T04:54:27.227Z,11.28
2023-05-14T04:55:27.210Z,11.39
2023-05-14T04:56:27.163Z,11.53
2023-05-14T04:57:27.171Z,11.75
2023-05-14T04:58:27.192Z,11.94
2023-05-14T04:59:27.157Z,12.16
2023-05-14T05:00:27.379Z,12.48
2023-05-14T05:01:27.177Z,12.82
2023-05-14T05:02:27.118Z,13.00
2023-05-14T05:03:27.192Z,13.27
2023-05-14T05:04:27.097Z,13.51
2023-05-14T05:05:27.127Z,13.54
2023-05-14T05:06:27.083Z,13.56
2023-05-14T05:07:27.090Z,13.37
2023-05-14T05:08:27.103Z,13.14
2023-05-14T05:09:27.050Z,12.97
2023-05-14T05:10:27.102Z,12.88
2023-05-14T05:11:27.047Z,12.66
2023-05-14T05:12:27.011Z,12.44
2023-05-14T05:13:27.051Z,12.15
2023-05-14T05:14:27.020Z,11.99
2023-05-14T05:15:26.970Z,12.01
2023-05-14T05:16:27.090Z,12.11
2023-05-14T05:17:26.997Z,12.42
2023-05-14T05:18:27.040Z,12.93
2023-05-14T05:19:39.537Z,13.46
2023-05-14T05:20:26.925Z,13.77
2023-05-14T05:21:26.916Z,13.88
2023-05-14T05:22:26.904Z,13.80
2023-05-14T05:23:26.918Z,13.73
2023-05-14T05:24:27.327Z,13.74
2023-05-14T05:25:26.866Z,13.89
2023-05-14T05:26:26.880Z,13.98
2023-05-14T05:27:26.850Z,14.07
2023-05-14T05:28:26.877Z,14.32
2023-05-14T05:29:26.860Z,14.68
2023-05-14T05:30:26.862Z,15.05
2023-05-14T05:31:26.835Z,15.54
2023-05-14T05:32:26.813Z,15.82
2023-05-14T05:33:26.850Z,15.88
2023-05-14T05:34:26.806Z,16.34
2023-05-14T05:35:26.800Z,16.56
2023-05-14T05:36:26.744Z,16.60
2023-05-14T05:37:26.791Z,16.93
2023-05-14T05:38:26.754Z,17.17
2023-05-14T05:39:26.742Z,17.33
2023-05-14T05:40:26.719Z,17.66
2023-05-14T05:41:26.694Z,17.79
2023-05-14T05:42:26.734Z,18.02
2023-05-14T05:43:26.671Z,18.19
2023-05-14T05:44:26.682Z,18.40
2023-05-14T05:45:26.672Z,18.61
2023-05-14T05:46:26.687Z,18.91
2023-05-14T05:47:26.736Z,18.86
2023-05-14T05:48:26.647Z,19.10
2023-05-14T05:49:26.636Z,19.55
2023-05-14T05:50:26.595Z,19.98
2023-05-14T05:51:26.617Z,20.39
2023-05-14T05:52:26.626Z,20.53
2023-05-14T05:53:26.612Z,20.61
2023-05-14T05:54:26.560Z,20.65
2023-05-14T05:55:26.552Z,20.64
2023-05-14T05:56:26.557Z,20.71
2023-05-14T05:57:26.533Z,20.86
2023-05-14T05:58:26.524Z,20.84
2023-05-14T05:59:26.541Z,20.96
2023-05-14T06:00:26.828Z,20.89
2023-05-14T06:01:26.566Z,20.59
2023-05-14T06:02:26.644Z,20.76
2023-05-14T06:03:26.527Z,20.98
2023-05-14T06:04:26.484Z,21.29
2023-05-14T06:05:26.569Z,21.34
2023-05-14T06:06:26.478Z,21.45
2023-05-14T06:07:26.458Z,21.51
2023-05-14T06:08:26.427Z,21.39
2023-05-14T06:09:26.418Z,21.24
2023-05-14T06:10:26.579Z,21.30
2023-05-14T06:11:26.392Z,21.29
2023-05-14T06:12:26.419Z,21.72
2023-05-14T06:13:26.379Z,22.16
2023-05-14T06:14:26.395Z,22.06
2023-05-14T06:15:26.371Z,22.25
2023-05-14T06:16:26.363Z,21.94
2023-05-14T06:17:26.359Z,21.98
2023-05-14T06:18:26.342Z,22.14
2023-05-14T06:19:26.370Z,22.01
2023-05-14T06:20:26.597Z,22.25
2023-05-14T06:21:26.293Z,22.64
2023-05-14T06:22:26.279Z,22.57
2023-05-14T06:23:26.292Z,22.83
2023-05-14T06:24:26.282Z,22.99
2023-05-14T06:25:26.267Z,23.02
2023-05-14T06:26:26.241Z,22.97
2023-05-14T06:27:26.220Z,23.12
2023-05-14T06:28:26.215Z,23.57
2023-05-14T06:29:26.259Z,23.72
2023-05-14T06:30:26.317Z,23.97
2023-05-14T06:31:26.242Z,24.27
2023-05-14T06:32:26.236Z,24.00
2023-05-14T06:33:26.227Z,24.08
2023-05-14T06:34:26.198Z,24.14
2023-05-14T06:35:26.155Z,24.32
2023-05-14T06:36:26.154Z,24.17
2023-05-14T06:37:26.124Z,24.02
2023-05-14T06:38:26.150Z,24.20
2023-05-14T06:39:26.129Z,24.64
2023-05-14T06:40:26.324Z,25.09
2023-05-14T06:41:26.103Z,25.20
2023-05-14T06:42:26.084Z,25.28
2023-05-14T06:43:26.124Z,25.69
2023-05-14T06:44:26.055Z,25.90
2023-05-14T06:45:26.053Z,25.47
2023-05-14T06:46:26.043Z,25.19
2023-05-14T06:47:26.110Z,25.27
2023-05-14T06:48:26.101Z,25.38
2023-05-14T06:49:26.032Z,24.54
2023-05-14T06:50:26.043Z,24.00
2023-05-14T06:51:25.981Z,24.44
2023-05-14T06:52:26.025Z,24.35
2023-05-14T06:53:25.995Z,24.50
2023-05-14T06:54:25.996Z,24.75
2023-05-14T06:55:25.974Z,25.07
2023-05-14T06:56:25.935Z,25.20
2023-05-14T06:57:25.922Z,25.06
2023-05-14T06:58:25.955Z,24.88
2023-05-14T06:59:25.913Z,24.73
2023-05-14T07:00:26.178Z,24.54
2023-05-14T07:01:25.940Z,24.29
2023-05-14T07:02:25.961Z,23.39
2023-05-14T07:03:25.866Z,23.04
2023-05-14T07:04:25.887Z,23.07
2023-05-14T07:05:25.846Z,23.32
2023-05-14T07:06:25.865Z,23.26
2023-05-14T07:07:25.875Z,23.35
2023-05-14T07:08:25.838Z,23.61
2023-05-14T07:09:25.824Z,24.00
2023-05-14T07:10:25.969Z,23.87
2023-05-14T07:11:25.795Z,23.86
2023-05-14T07:12:25.823Z,23.95
2023-05-14T07:13:27.704Z,23.92
2023-05-14T07:14:25.811Z,24.14
2023-05-14T07:15:25.783Z,24.14
2023-05-14T07:16:25.818Z,24.54
2023-05-14T07:17:25.846Z,24.12
2023-05-14T07:18:25.722Z,23.92
2023-05-14T07:19:25.733Z,23.85
2023-05-14T07:20:26.053Z,24.07
2023-05-14T07:21:25.691Z,24.37
2023-05-14T07:22:25.729Z,24.79
2023-05-14T07:23:25.686Z,25.02
2023-05-14T07:24:25.693Z,24.67
2023-05-14T07:25:25.686Z,24.63
2023-05-14T07:26:25.716Z,24.26
2023-05-14T07:27:25.665Z,24.13
2023-05-14T07:28:25.629Z,24.37
2023-05-14T07:29:25.637Z,24.88
2023-05-14T07:30:25.906Z,25.64
2023-05-14T07:31:25.676Z,25.93
2023-05-14T07:32:25.649Z,26.44
2023-05-14T07:33:25.580Z,26.79
2023-05-14T07:34:25.618Z,26.73
2023-05-14T07:35:25.559Z,26.05
2023-05-14T07:36:25.545Z,25.52
2023-05-14T07:37:25.534Z,24.98
2023-05-14T07:38:25.528Z,24.10
2023-05-14T07:39:25.620Z,24.04
2023-05-14T07:40:25.877Z,24.44
2023-05-14T07:41:25.503Z,24.38
2023-05-14T07:42:35.368Z,24.26
2023-05-14T07:43:25.531Z,24.53
2023-05-14T07:44:25.526Z,24.53
2023-05-14T07:45:25.561Z,24.92
2023-05-14T07:46:26.293Z,24.39
2023-05-14T07:47:26.313Z,24.57
2023-05-14T07:48:25.514Z,24.97
2023-05-14T07:49:25.434Z,24.97
2023-05-14T07:50:25.576Z,25.05
2023-05-14T07:51:25.406Z,24.73
2023-05-14T07:52:25.477Z,24.76
2023-05-14T07:53:25.410Z,24.08
2023-05-14T07:54:25.430Z,24.44
2023-05-14T07:55:25.369Z,24.92
2023-05-14T07:56:25.360Z,24.82
2023-05-14T07:57:25.379Z,24.64
2023-05-14T07:58:25.346Z,24.20
2023-05-14T07:59:25.347Z,24.23
2023-05-14T08:00:25.539Z,23.94
2023-05-14T08:01:25.311Z,23.95
2023-05-14T08:02:25.454Z,24.53
2023-05-14T08:03:25.446Z,25.43
2023-05-14T08:04:25.393Z,25.19
2023-05-14T08:05:25.281Z,25.34
2023-05-14T08:06:25.298Z,25.86
2023-05-14T08:07:25.311Z,26.12
2023-05-14T08:08:25.256Z,26.80
2023-05-14T08:09:25.276Z,26.92
2023-05-14T08:10:25.521Z,27.16
2023-05-14T08:11:25.274Z,27.71
2023-05-14T08:12:25.203Z,27.96
2023-05-14T08:13:25.239Z,27.85
2023-05-14T08:14:25.200Z,27.21
2023-05-14T08:15:27.598Z,27.01
2023-05-14T08:16:25.280Z,26.72
2023-05-14T08:17:25.178Z,26.21
2023-05-14T08:18:25.193Z,25.05
2023-05-14T08:19:25.178Z,24.88
2023-05-14T08:20:25.421Z,24.73
2023-05-14T08:21:25.133Z,24.91
2023-05-14T08:22:25.137Z,24.38
2023-05-14T08:23:25.142Z,24.29
2023-05-14T08:24:25.114Z,24.35
2023-05-14T08:25:25.140Z,24.20
2023-05-14T08:26:25.114Z,24.08
2023-05-14T08:27:25.072Z,23.65
2023-05-14T08:28:25.072Z,23.52
2023-05-14T08:29:25.072Z,22.94
2023-05-14T08:30:25.538Z,22.72
2023-05-14T08:31:25.152Z,22.28
2023-05-14T08:32:25.055Z,21.66
2023-05-14T08:33:25.059Z,21.39
2023-05-14T08:34:25.021Z,21.56
2023-05-14T08:35:25.030Z,21.39
2023-05-14T08:36:36.224Z,21.29
2023-05-14T08:37:25.007Z,20.99
2023-05-14T08:38:25.186Z,20.76
2023-05-14T08:39:24.986Z,20.71
2023-05-14T08:40:25.281Z,20.90
2023-05-14T08:41:24.958Z,21.01
2023-05-14T08:42:24.952Z,21.20
2023-05-14T08:43:24.945Z,21.27
2023-05-14T08:44:25.089Z,21.13
2023-05-14T08:45:24.917Z,21.16
2023-05-14T08:46:25.606Z,21.29
2023-05-14T08:47:24.957Z,21.27
2023-05-14T08:48:24.965Z,21.02
2023-05-14T08:49:25.108Z,21.08
2023-05-14T08:50:25.262Z,21.02
2023-05-14T08:51:24.867Z,21.23
2023-05-14T08:52:24.998Z,22.23
2023-05-14T08:53:24.852Z,22.57
2023-05-14T08:54:24.860Z,22.92
2023-05-14T08:55:24.808Z,23.34
2023-05-14T08:56:24.833Z,23.47
2023-05-14T08:57:24.963Z,23.58
2023-05-14T08:58:24.809Z,22.87
2023-05-14T08:59:24.918Z,23.12
2023-05-14T09:00:25.172Z,23.11
2023-05-14T09:01:25.468Z,22.87
2023-05-14T09:02:25.017Z,23.40
2023-05-14T09:03:24.769Z,23.15
2023-05-14T09:04:24.712Z,23.32
2023-05-14T09:05:24.721Z,23.97
2023-05-14T09:06:24.733Z,24.49
2023-05-14T09:07:24.685Z,24.79
2023-05-14T09:08:24.688Z,24.45
2023-05-14T09:09:24.676Z,24.23
2023-05-14T09:10:24.903Z,23.31
2023-05-14T09:11:24.666Z,23.32
2023-05-14T09:12:24.660Z,23.68
2023-05-14T09:13:25.816Z,24.31
2023-05-14T09:14:24.654Z,24.59
2023-05-14T09:15:24.612Z,23.87
2023-05-14T09:16:24.749Z,22.96
2023-05-14T09:17:24.706Z,22.31
2023-05-14T09:18:24.632Z,22.53
2023-05-14T09:19:24.584Z,22.23
2023-05-14T09:20:25.167Z,22.10
2023-05-14T09:21:24.573Z,22.39
2023-05-14T09:22:34.660Z,23.09
2023-05-14T09:23:24.688Z,24.17
2023-05-14T09:24:24.585Z,25.02
2023-05-14T09:25:24.512Z,25.75
2023-05-14T09:26:24.543Z,25.27
2023-05-14T09:27:24.648Z,24.12
2023-05-14T09:28:24.483Z,23.38
2023-05-14T09:29:24.463Z,22.47
2023-05-14T09:30:24.614Z,22.39
2023-05-14T09:31:24.581Z,23.12
2023-05-14T09:32:24.550Z,24.54
2023-05-14T09:33:24.415Z,25.17
2023-05-14T09:34:24.425Z,24.90
2023-05-14T09:35:24.407Z,24.94
2023-05-14T09:36:24.532Z,25.43
2023-05-14T09:37:34.498Z,25.97
2023-05-14T09:38:24.443Z,26.39
2023-05-14T09:39:24.388Z,25.68
2023-05-14T09:40:25.152Z,24.20
2023-05-14T09:41:24.365Z,22.92
2023-05-14T09:42:24.356Z,22.65
2023-05-14T09:43:24.322Z,22.35
2023-05-14T09:44:24.451Z,21.97
2023-05-14T09:45:24.322Z,21.85
2023-05-14T09:46:24.311Z,21.90
2023-05-14T09:47:24.402Z,21.74
2023-05-14T09:48:24.392Z,21.71
2023-05-14T09:49:24.345Z,21.85
2023-05-14T09:50:24.471Z,22.59
2023-05-14T09:51:24.306Z,22.14
2023-05-14T09:52:24.242Z,21.99
2023-05-14T09:53:24.383Z,22.16
2023-05-14T09:54:24.236Z,22.80
2023-05-14T09:55:24.240Z,23.45
2023-05-14T09:56:24.198Z,23.29
2023-05-14T09:57:24.176Z,23.29
2023-05-14T09:58:25.119Z,23.09
2023-05-14T09:59:24.169Z,23.32
2023-05-14T10:00:24.309Z,24.34
2023-05-14T10:01:24.222Z,25.53
2023-05-14T10:02:24.214Z,26.72
2023-05-14T10:03:24.270Z,26.80
2023-05-14T10:04:24.206Z,27.05
2023-05-14T10:05:24.097Z,27.89
2023-05-14T10:06:24.144Z,28.33
2023-05-14T10:07:24.211Z,27.95
2023-05-14T10:08:24.109Z,27.43
2023-05-14T10:09:24.388Z,26.58
2023-05-14T10:10:24.459Z,25.90
2023-05-14T10:11:24.044Z,24.61
2023-05-14T10:12:24.054Z,23.76
2023-05-14T10:13:24.055Z,23.39
2023-05-14T10:14:24.039Z,22.65
2023-05-14T10:15:24.009Z,22.28
2023-05-14T10:16:24.536Z,21.66
2023-05-14T10:17:24.733Z,21.46
2023-05-14T10:18:23.994Z,21.32
2023-05-14T10:19:24.052Z,21.24
2023-05-14T10:20:24.431Z,21.09
2023-05-14T10:21:23.956Z,20.96
2023-05-14T10:22:24.655Z,20.68
2023-05-14T10:23:23.932Z,20.62
2023-05-14T10:24:24.912Z,20.77
2023-05-14T10:25:23.923Z,20.99
2023-05-14T10:26:24.210Z,21.19
2023-05-14T10:27:23.904Z,21.17
2023-05-14T10:28:23.882Z,21.17
2023-05-14T10:29:23.868Z,21.13
2023-05-14T10:30:24.247Z,21.24
2023-05-14T10:31:23.979Z,21.29
2023-05-14T10:32:23.876Z,21.36
2023-05-14T10:33:23.909Z,21.34
2023-05-14T10:34:23.863Z,21.39
2023-05-14T10:35:23.805Z,20.96
2023-05-14T10:36:23.900Z,21.04
2023-05-14T10:37:23.850Z,20.96
2023-05-14T10:38:23.848Z,20.99
2023-05-14T10:39:23.809Z,21.20
2023-05-14T10:40:24.044Z,21.21
2023-05-14T10:41:23.764Z,21.99
2023-05-14T10:42:23.780Z,22.53
2023-05-14T10:43:23.729Z,22.37
2023-05-14T10:44:23.848Z,22.31
2023-05-14T10:45:23.725Z,23.05
2023-05-14T10:46:23.776Z,24.67
2023-05-14T10:47:23.684Z,25.64
2023-05-14T10:48:23.768Z,27.16
2023-05-14T10:49:35.605Z,28.14
2023-05-14T10:50:24.144Z,29.20
2023-05-14T10:51:23.719Z,29.49
2023-05-14T10:52:23.653Z,28.65
2023-05-14T10:53:23.618Z,27.80
2023-05-14T10:54:23.618Z,26.40
2023-05-14T10:55:23.766Z,25.97
2023-05-14T10:56:23.613Z,25.28
2023-05-14T10:57:23.598Z,24.61
2023-05-14T10:58:23.572Z,24.26
2023-05-14T10:59:23.589Z,23.76
2023-05-14T11:00:23.697Z,23.23
2023-05-14T11:01:23.589Z,22.96
2023-05-14T11:02:23.592Z,23.19
2023-05-14T11:03:23.616Z,23.70
2023-05-14T11:04:23.582Z,24.02
2023-05-14T11:05:23.510Z,23.87
2023-05-14T11:06:23.495Z,23.82
2023-05-14T11:07:23.496Z,23.62
2023-05-14T11:08:26.463Z,23.55
2023-05-14T11:09:23.513Z,23.57
2023-05-14T11:10:23.716Z,23.62
2023-05-14T11:11:23.450Z,23.60
2023-05-14T11:12:23.435Z,23.15
2023-05-14T11:13:23.487Z,23.17
2023-05-14T11:14:23.420Z,22.94
2023-05-14T11:15:23.653Z,22.87
2023-05-14T11:16:24.133Z,22.93
2023-05-14T11:17:23.654Z,23.08
2023-05-14T11:18:23.405Z,23.07
2023-05-14T11:19:23.363Z,23.60
2023-05-14T11:20:23.758Z,24.56
2023-05-14T11:21:23.396Z,24.26
2023-05-14T11:22:23.365Z,23.76
2023-05-14T11:23:23.361Z,23.32
2023-05-14T11:24:23.314Z,23.11
2023-05-14T11:25:23.307Z,23.12
2023-05-14T11:26:23.399Z,23.15
2023-05-14T11:27:23.309Z,22.99
2023-05-14T11:28:23.310Z,22.99
2023-05-14T11:29:23.265Z,23.19
2023-05-14T11:30:23.548Z,23.07
2023-05-14T11:31:23.294Z,22.67
2023-05-14T11:32:23.272Z,22.64
2023-05-14T11:33:23.227Z,22.56
2023-05-14T11:34:23.214Z,22.35
2023-05-14T11:35:23.214Z,21.83
2023-05-14T11:36:23.244Z,21.75
2023-05-14T11:37:23.236Z,21.63
2023-05-14T11:38:23.315Z,21.41
2023-05-14T11:39:23.187Z,21.29
2023-05-14T11:40:23.375Z,21.39
2023-05-14T11:41:23.581Z,21.24
2023-05-14T11:42:23.155Z,21.29
2023-05-14T11:43:23.154Z,21.14
2023-05-14T11:44:23.126Z,20.95
2023-05-14T11:45:23.180Z,20.79
2023-05-14T11:46:23.140Z,20.34
2023-05-14T11:47:23.089Z,20.23
2023-05-14T11:48:23.087Z,20.16
2023-05-14T11:49:23.076Z,20.00
2023-05-14T11:50:23.455Z,19.90
2023-05-14T11:51:23.093Z,19.83
2023-05-14T11:52:23.059Z,19.97
2023-05-14T11:53:23.014Z,20.06
2023-05-14T11:54:23.016Z,20.05
2023-05-14T11:55:23.021Z,20.02
2023-05-14T11:56:23.033Z,19.93
2023-05-14T11:57:23.001Z,19.94
2023-05-14T11:58:23.016Z,19.91
2023-05-14T11:59:22.967Z,20.08
2023-05-14T12:00:23.099Z,20.25
2023-05-14T12:01:22.973Z,20.43
2023-05-14T12:02:23.005Z,20.71
2023-05-14T12:03:23.175Z,20.91
2023-05-14T12:04:22.963Z,21.14
2023-05-14T12:05:23.014Z,21.21
2023-05-14T12:06:22.899Z,21.32
2023-05-14T12:07:22.868Z,21.39
2023-05-14T12:08:22.875Z,21.44
2023-05-14T12:09:22.880Z,21.56
2023-05-14T12:10:23.128Z,21.61
2023-05-14T12:11:22.992Z,21.66
2023-05-14T12:12:22.839Z,21.71
2023-05-14T12:13:22.834Z,21.56
2023-05-14T12:14:22.867Z,21.41
2023-05-14T12:15:22.792Z,21.34
2023-05-14T12:16:22.894Z,21.14
2023-05-14T12:17:22.843Z,21.16
2023-05-14T12:18:25.080Z,21.27
2023-05-14T12:19:22.801Z,21.45
2023-05-14T12:20:23.109Z,21.63
2023-05-14T12:21:22.729Z,21.83
2023-05-14T12:22:22.766Z,21.91
2023-05-14T12:23:22.713Z,21.78
2023-05-14T12:24:22.716Z,21.48
2023-05-14T12:25:22.685Z,21.23
2023-05-14T12:26:22.702Z,21.32
2023-05-14T12:27:22.659Z,21.39
2023-05-14T12:28:22.681Z,21.23
2023-05-14T12:29:22.660Z,21.29
2023-05-14T12:30:22.669Z,21.39
2023-05-14T12:31:22.728Z,21.69
2023-05-14T12:32:22.613Z,21.78
2023-05-14T12:33:22.631Z,21.60
2023-05-14T12:34:22.605Z,21.76
2023-05-14T12:35:23.235Z,21.98
2023-05-14T12:36:22.648Z,22.16
2023-05-14T12:37:22.624Z,22.28
2023-05-14T12:38:22.582Z,22.22
2023-05-14T12:39:22.570Z,22.31
2023-05-14T12:40:22.688Z,22.43
2023-05-14T12:41:22.542Z,22.46
2023-05-14T12:42:22.589Z,22.37
2023-05-14T12:43:22.524Z,22.23
2023-05-14T12:44:22.593Z,22.38
2023-05-14T12:45:22.692Z,22.52
2023-05-14T12:46:22.549Z,22.35
2023-05-14T12:47:22.604Z,22.23
2023-05-14T12:48:22.516Z,22.39
2023-05-14T12:49:22.443Z,22.37
2023-05-14T12:50:22.863Z,22.35
2023-05-14T12:51:22.441Z,22.43
2023-05-14T12:52:33.340Z,22.64
2023-05-14T12:53:22.434Z,22.75
2023-05-14T12:54:22.396Z,22.80
2023-05-14T12:55:22.370Z,22.86
2023-05-14T12:56:22.370Z,22.72
2023-05-14T12:57:22.494Z,22.59
2023-05-14T12:58:22.400Z,22.52
2023-05-14T12:59:22.330Z,22.41
2023-05-14T13:00:22.503Z,22.47
2023-05-14T13:01:22.375Z,22.39